sensor_id;sensor_type;location;lat;lon;timestamp;pressure;altitude;pressure_sealevel;temperature;humidity
47082;BME280;33066;49.296;14.470;2023-01-25T00:01:03;98617.38;;;8.25;38.71
47082;BME280;33066;49.296;14.470;2023-01-25T00:03:28;98618.56;;;8.35;38.41
47082;BME280;33066;49.296;14.470;2023-01-25T00:05:58;98619.01;;;8.37;38.41
47082;BME280;33066;49.296;14.470;2023-01-25T00:08:18;98616.14;;;8.54;38.35
47082;BME280;33066;49.296;14.470;2023-01-25T00:10:43;98615.44;;;8.28;38.27
47082;BME280;33066;49.296;14.470;2023-01-25T00:13:09;98612.22;;;8.46;38.30
47082;BME280;33066;49.296;14.470;2023-01-25T00:15:34;98611.94;;;8.25;38.33
47082;BME280;33066;49.296;14.470;2023-01-25T00:18:00;98613.44;;;8.56;38.30
47082;BME280;33066;49.296;14.470;2023-01-25T00:20:25;98615.17;;;8.39;38.32
47082;BME280;33066;49.296;14.470;2023-01-25T00:22:51;98615.44;;;8.43;38.54
47082;BME280;33066;49.296;14.470;2023-01-25T00:25:17;98615.91;;;8.40;38.79
47082;BME280;33066;49.296;14.470;2023-01-25T00:27:42;98615.15;;;8.36;38.91
47082;BME280;33066;49.296;14.470;2023-01-25T00:30:09;98608.09;;;8.61;38.74
47082;BME280;33066;49.296;14.470;2023-01-25T00:32:47;98608.46;;;8.13;38.43
47082;BME280;33066;49.296;14.470;2023-01-25T00:34:59;98608.12;;;8.18;38.34
47082;BME280;33066;49.296;14.470;2023-01-25T00:37:28;98607.52;;;8.51;38.12
47082;BME280;33066;49.296;14.470;2023-01-25T00:39:50;98604.52;;;8.02;37.90
47082;BME280;33066;49.296;14.470;2023-01-25T00:42:17;98606.73;;;8.60;37.96
47082;BME280;33066;49.296;14.470;2023-01-25T00:44:40;98605.51;;;8.15;38.22
47082;BME280;33066;49.296;14.470;2023-01-25T00:47:06;98604.25;;;8.65;38.24
47082;BME280;33066;49.296;14.470;2023-01-25T00:49:32;98606.82;;;8.15;38.71
47082;BME280;33066;49.296;14.470;2023-01-25T00:51:57;98606.40;;;8.03;38.84
47082;BME280;33066;49.296;14.470;2023-01-25T00:54:22;98608.95;;;7.97;38.96
47082;BME280;33066;49.296;14.470;2023-01-25T00:56:47;98609.48;;;8.03;38.84
47082;BME280;33066;49.296;14.470;2023-01-25T00:59:13;98611.14;;;8.02;38.53
47082;BME280;33066;49.296;14.470;2023-01-25T01:01:40;98612.58;;;7.97;38.28
47082;BME280;33066;49.296;14.470;2023-01-25T01:04:04;98611.23;;;7.94;38.24
47082;BME280;33066;49.296;14.470;2023-01-25T01:06:29;98612.51;;;8.15;38.32
47082;BME280;33066;49.296;14.470;2023-01-25T01:08:54;98614.45;;;7.91;38.23
47082;BME280;33066;49.296;14.470;2023-01-25T01:11:19;98612.63;;;8.20;38.12
47082;BME280;33066;49.296;14.470;2023-01-25T01:13:45;98608.69;;;8.14;37.93
47082;BME280;33066;49.296;14.470;2023-01-25T01:16:12;98605.39;;;8.36;38.02
47082;BME280;33066;49.296;14.470;2023-01-25T01:18:38;98603.61;;;8.46;38.03
47082;BME280;33066;49.296;14.470;2023-01-25T01:21:01;98604.02;;;7.96;38.10
47082;BME280;33066;49.296;14.470;2023-01-25T01:23:27;98603.45;;;8.28;38.17
47082;BME280;33066;49.296;14.470;2023-01-25T01:25:52;98599.97;;;8.09;38.30
47082;BME280;33066;49.296;14.470;2023-01-25T01:28:17;98596.99;;;8.06;37.82
47082;BME280;33066;49.296;14.470;2023-01-25T01:30:42;98597.96;;;8.14;37.80
47082;BME280;33066;49.296;14.470;2023-01-25T01:33:07;98599.83;;;8.15;37.86
47082;BME280;33066;49.296;14.470;2023-01-25T01:35:33;98596.04;;;8.27;38.08
47082;BME280;33066;49.296;14.470;2023-01-25T01:37:59;98599.51;;;8.20;38.43
47082;BME280;33066;49.296;14.470;2023-01-25T01:40:24;98598.96;;;8.24;38.46
47082;BME280;33066;49.296;14.470;2023-01-25T01:42:57;98599.13;;;8.21;38.55
47082;BME280;33066;49.296;14.470;2023-01-25T01:47:41;98602.25;;;8.14;38.52
47082;BME280;33066;49.296;14.470;2023-01-25T01:50:13;98604.61;;;8.11;38.49
47082;BME280;33066;49.296;14.470;2023-01-25T01:52:33;98602.49;;;8.08;38.30
47082;BME280;33066;49.296;14.470;2023-01-25T01:54:58;98605.13;;;8.10;38.08
47082;BME280;33066;49.296;14.470;2023-01-25T01:57:23;98606.68;;;8.37;38.03
47082;BME280;33066;49.296;14.470;2023-01-25T01:59:48;98607.28;;;8.01;37.91
47082;BME280;33066;49.296;14.470;2023-01-25T02:02:12;98605.36;;;8.16;38.53
47082;BME280;33066;49.296;14.470;2023-01-25T02:04:37;98607.32;;;8.50;38.53
47082;BME280;33066;49.296;14.470;2023-01-25T02:07:06;98610.93;;;8.23;38.67
47082;BME280;33066;49.296;14.470;2023-01-25T02:09:30;98611.47;;;8.10;38.65
47082;BME280;33066;49.296;14.470;2023-01-25T02:11:55;98607.63;;;8.07;38.75
47082;BME280;33066;49.296;14.470;2023-01-25T02:14:20;98609.47;;;8.43;38.27
47082;BME280;33066;49.296;14.470;2023-01-25T02:16:45;98607.95;;;8.18;38.07
47082;BME280;33066;49.296;14.470;2023-01-25T02:19:16;98607.69;;;8.37;37.96
47082;BME280;33066;49.296;14.470;2023-01-25T02:21:39;98605.04;;;7.92;37.98
47082;BME280;33066;49.296;14.470;2023-01-25T02:24:08;98601.94;;;7.92;38.16
47082;BME280;33066;49.296;14.470;2023-01-25T02:26:28;98600.25;;;8.22;38.27
47082;BME280;33066;49.296;14.470;2023-01-25T02:28:57;98601.06;;;8.19;38.45
47082;BME280;33066;49.296;14.470;2023-01-25T02:31:19;98598.93;;;8.16;38.15
47082;BME280;33066;49.296;14.470;2023-01-25T02:33:44;98599.79;;;8.20;38.14
47082;BME280;33066;49.296;14.470;2023-01-25T02:36:18;98599.60;;;8.48;38.03
47082;BME280;33066;49.296;14.470;2023-01-25T02:38:39;98596.11;;;8.14;37.34
47082;BME280;33066;49.296;14.470;2023-01-25T02:41:05;98596.04;;;8.36;37.55
47082;BME280;33066;49.296;14.470;2023-01-25T02:43:28;98593.20;;;8.14;37.93
47082;BME280;33066;49.296;14.470;2023-01-25T02:45:57;98593.64;;;8.20;38.07
47082;BME280;33066;49.296;14.470;2023-01-25T02:48:18;98595.99;;;8.45;38.18
47082;BME280;33066;49.296;14.470;2023-01-25T02:50:43;98596.43;;;7.89;38.60
47082;BME280;33066;49.296;14.470;2023-01-25T02:53:08;98596.07;;;8.11;38.77
47082;BME280;33066;49.296;14.470;2023-01-25T02:55:34;98592.69;;;7.91;38.77
47082;BME280;33066;49.296;14.470;2023-01-25T02:57:59;98591.30;;;8.37;38.70
47082;BME280;33066;49.296;14.470;2023-01-25T03:00:25;98587.00;;;7.95;38.56
47082;BME280;33066;49.296;14.470;2023-01-25T03:02:50;98582.97;;;8.41;38.40
47082;BME280;33066;49.296;14.470;2023-01-25T03:05:16;98572.78;;;8.22;38.35
47082;BME280;33066;49.296;14.470;2023-01-25T03:07:41;98565.21;;;8.21;38.27
47082;BME280;33066;49.296;14.470;2023-01-25T03:10:07;98560.41;;;8.01;38.21
47082;BME280;33066;49.296;14.470;2023-01-25T03:12:32;98555.65;;;8.02;38.39
47082;BME280;33066;49.296;14.470;2023-01-25T03:14:57;98546.48;;;7.99;38.43
47082;BME280;33066;49.296;14.470;2023-01-25T03:17:22;98543.84;;;7.90;38.34
47082;BME280;33066;49.296;14.470;2023-01-25T03:19:48;98537.51;;;8.34;38.14
47082;BME280;33066;49.296;14.470;2023-01-25T03:22:14;98537.43;;;7.91;38.01
47082;BME280;33066;49.296;14.470;2023-01-25T03:24:40;98539.94;;;8.00;37.86
47082;BME280;33066;49.296;14.470;2023-01-25T03:27:06;98536.93;;;7.96;37.51
47082;BME280;33066;49.296;14.470;2023-01-25T03:29:31;98542.97;;;8.26;37.62
47082;BME280;33066;49.296;14.470;2023-01-25T03:31:57;98543.71;;;8.24;37.99
47082;BME280;33066;49.296;14.470;2023-01-25T03:34:23;98541.15;;;8.15;38.32
47082;BME280;33066;49.296;14.470;2023-01-25T03:36:48;98539.19;;;8.28;38.75
47082;BME280;33066;49.296;14.470;2023-01-25T03:39:14;98538.16;;;7.85;38.72
47082;BME280;33066;49.296;14.470;2023-01-25T03:41:39;98537.36;;;8.04;38.90
47082;BME280;33066;49.296;14.470;2023-01-25T03:44:05;98535.51;;;8.20;38.76
47082;BME280;33066;49.296;14.470;2023-01-25T03:46:30;98528.83;;;8.25;38.46
47082;BME280;33066;49.296;14.470;2023-01-25T03:48:56;98522.05;;;8.03;37.97
47082;BME280;33066;49.296;14.470;2023-01-25T03:51:21;98518.00;;;8.53;37.92
47082;BME280;33066;49.296;14.470;2023-01-25T03:53:47;98515.94;;;8.33;37.98
47082;BME280;33066;49.296;14.470;2023-01-25T03:56:12;98513.85;;;8.09;38.12
47082;BME280;33066;49.296;14.470;2023-01-25T03:58:38;98507.29;;;8.06;38.33
47082;BME280;33066;49.296;14.470;2023-01-25T04:01:05;98501.20;;;8.05;38.33
47082;BME280;33066;49.296;14.470;2023-01-25T04:03:29;98497.01;;;8.17;38.65
47082;BME280;33066;49.296;14.470;2023-01-25T04:05:55;98497.03;;;8.02;38.71
47082;BME280;33066;49.296;14.470;2023-01-25T04:08:20;98494.03;;;8.00;38.76
47082;BME280;33066;49.296;14.470;2023-01-25T04:13:00;98486.38;;;8.27;38.28
47082;BME280;33066;49.296;14.470;2023-01-25T04:15:26;98486.84;;;8.44;38.37
47082;BME280;33066;49.296;14.470;2023-01-25T04:17:51;98485.35;;;8.10;38.53
47082;BME280;33066;49.296;14.470;2023-01-25T04:20:16;98481.01;;;8.31;38.03
47082;BME280;33066;49.296;14.470;2023-01-25T04:22:42;98481.16;;;8.09;38.02
47082;BME280;33066;49.296;14.470;2023-01-25T04:25:08;98479.16;;;8.09;38.05
47082;BME280;33066;49.296;14.470;2023-01-25T04:27:32;98480.93;;;8.15;38.06
47082;BME280;33066;49.296;14.470;2023-01-25T04:29:57;98480.61;;;8.41;37.95
47082;BME280;33066;49.296;14.470;2023-01-25T04:32:23;98478.56;;;8.00;38.04
47082;BME280;33066;49.296;14.470;2023-01-25T04:34:49;98476.18;;;8.02;37.87
47082;BME280;33066;49.296;14.470;2023-01-25T04:37:14;98471.24;;;8.11;37.50
47082;BME280;33066;49.296;14.470;2023-01-25T04:39:40;98469.83;;;8.40;37.55
47082;BME280;33066;49.296;14.470;2023-01-25T04:42:06;98465.66;;;8.23;37.72
47082;BME280;33066;49.296;14.470;2023-01-25T04:44:32;98462.75;;;8.44;37.77
47082;BME280;33066;49.296;14.470;2023-01-25T04:46:57;98462.19;;;8.12;38.00
47082;BME280;33066;49.296;14.470;2023-01-25T04:49:23;98459.63;;;8.02;38.18
47082;BME280;33066;49.296;14.470;2023-01-25T04:51:48;98459.92;;;8.38;38.20
47082;BME280;33066;49.296;14.470;2023-01-25T04:54:14;98462.24;;;8.23;38.41
47082;BME280;33066;49.296;14.470;2023-01-25T04:56:39;98462.55;;;8.29;38.54
47082;BME280;33066;49.296;14.470;2023-01-25T04:59:04;98461.73;;;8.56;38.58
47082;BME280;33066;49.296;14.470;2023-01-25T05:01:30;98463.21;;;8.34;38.53
47082;BME280;33066;49.296;14.470;2023-01-25T05:03:56;98463.42;;;8.17;38.58
47082;BME280;33066;49.296;14.470;2023-01-25T05:06:21;98462.30;;;8.24;39.04
47082;BME280;33066;49.296;14.470;2023-01-25T05:08:46;98461.29;;;8.16;38.43
47082;BME280;33066;49.296;14.470;2023-01-25T05:11:12;98461.75;;;8.09;38.35
47082;BME280;33066;49.296;14.470;2023-01-25T05:13:37;98462.54;;;8.14;38.56
47082;BME280;33066;49.296;14.470;2023-01-25T05:16:03;98462.67;;;8.24;38.67
47082;BME280;33066;49.296;14.470;2023-01-25T05:18:28;98459.68;;;8.32;38.84
47082;BME280;33066;49.296;14.470;2023-01-25T05:20:54;98458.21;;;8.30;38.17
47082;BME280;33066;49.296;14.470;2023-01-25T05:23:19;98456.27;;;8.12;38.39
47082;BME280;33066;49.296;14.470;2023-01-25T05:25:45;98457.21;;;8.33;38.59
47082;BME280;33066;49.296;14.470;2023-01-25T05:28:10;98458.65;;;8.61;38.82
47082;BME280;33066;49.296;14.470;2023-01-25T05:30:36;98458.69;;;8.34;38.66
47082;BME280;33066;49.296;14.470;2023-01-25T05:33:01;98455.77;;;8.37;38.45
47082;BME280;33066;49.296;14.470;2023-01-25T05:35:27;98456.10;;;8.39;38.27
47082;BME280;33066;49.296;14.470;2023-01-25T05:37:56;98454.98;;;8.34;37.83
47082;BME280;33066;49.296;14.470;2023-01-25T05:40:18;98453.68;;;8.44;38.05
47082;BME280;33066;49.296;14.470;2023-01-25T05:42:43;98449.72;;;8.88;36.80
47082;BME280;33066;49.296;14.470;2023-01-25T05:45:09;98450.64;;;8.97;36.62
47082;BME280;33066;49.296;14.470;2023-01-25T05:47:34;98458.01;;;8.74;37.48
47082;BME280;33066;49.296;14.470;2023-01-25T05:49:59;98456.77;;;8.75;37.02
47082;BME280;33066;49.296;14.470;2023-01-25T05:52:25;98452.90;;;8.77;37.41
47082;BME280;33066;49.296;14.470;2023-01-25T05:54:50;98456.56;;;8.55;37.21
47082;BME280;33066;49.296;14.470;2023-01-25T05:57:16;98454.67;;;8.51;36.82
47082;BME280;33066;49.296;14.470;2023-01-25T05:59:41;98453.66;;;8.67;36.76
47082;BME280;33066;49.296;14.470;2023-01-25T06:02:06;98451.46;;;8.66;37.04
47082;BME280;33066;49.296;14.470;2023-01-25T06:04:32;98451.45;;;8.60;36.73
47082;BME280;33066;49.296;14.470;2023-01-25T06:06:58;98450.84;;;7.43;36.71
47082;BME280;33066;49.296;14.470;2023-01-25T06:09:23;98450.63;;;8.86;36.39
47082;BME280;33066;49.296;14.470;2023-01-25T06:11:49;98451.96;;;8.79;36.41
47082;BME280;33066;49.296;14.470;2023-01-25T06:14:15;98451.81;;;8.73;36.29
47082;BME280;33066;49.296;14.470;2023-01-25T06:16:40;98452.96;;;8.59;36.51
47082;BME280;33066;49.296;14.470;2023-01-25T06:19:05;98453.51;;;8.52;36.66
47082;BME280;33066;49.296;14.470;2023-01-25T06:21:30;98456.16;;;8.48;36.60
47082;BME280;33066;49.296;14.470;2023-01-25T06:23:56;98458.72;;;8.46;36.73
47082;BME280;33066;49.296;14.470;2023-01-25T06:26:21;98459.01;;;8.35;36.56
47082;BME280;33066;49.296;14.470;2023-01-25T06:28:47;98459.08;;;8.33;36.75
47082;BME280;33066;49.296;14.470;2023-01-25T06:31:15;98457.57;;;8.32;36.77
47082;BME280;33066;49.296;14.470;2023-01-25T06:33:39;98457.33;;;8.36;36.74
47082;BME280;33066;49.296;14.470;2023-01-25T06:36:06;98459.41;;;8.37;36.57
47082;BME280;33066;49.296;14.470;2023-01-25T06:38:29;98460.84;;;8.44;36.65
47082;BME280;33066;49.296;14.470;2023-01-25T06:40:58;98456.08;;;8.39;36.68
47082;BME280;33066;49.296;14.470;2023-01-25T06:43:20;98455.82;;;8.39;36.78
47082;BME280;33066;49.296;14.470;2023-01-25T06:45:45;98456.85;;;8.40;36.75
47082;BME280;33066;49.296;14.470;2023-01-25T06:48:10;98459.26;;;8.33;36.82
47082;BME280;33066;49.296;14.470;2023-01-25T06:50:35;98461.22;;;8.32;36.94
47082;BME280;33066;49.296;14.470;2023-01-25T06:53:00;98463.16;;;8.20;37.01
47082;BME280;33066;49.296;14.470;2023-01-25T06:55:26;98457.59;;;8.13;36.82
47082;BME280;33066;49.296;14.470;2023-01-25T06:57:51;98454.22;;;8.15;36.91
47082;BME280;33066;49.296;14.470;2023-01-25T07:00:18;98456.00;;;8.19;36.77
47082;BME280;33066;49.296;14.470;2023-01-25T07:02:42;98452.28;;;8.26;37.11
47082;BME280;33066;49.296;14.470;2023-01-25T07:05:08;98451.05;;;8.36;37.76
47082;BME280;33066;49.296;14.470;2023-01-25T07:07:33;98451.13;;;8.43;38.00
47082;BME280;33066;49.296;14.470;2023-01-25T07:09:58;98453.24;;;8.58;37.99
47082;BME280;33066;49.296;14.470;2023-01-25T07:12:24;98450.61;;;8.54;37.06
47082;BME280;33066;49.296;14.470;2023-01-25T07:14:50;98447.31;;;8.47;37.30
47082;BME280;33066;49.296;14.470;2023-01-25T07:17:14;98449.32;;;8.45;36.58
47082;BME280;33066;49.296;14.470;2023-01-25T07:19:39;98449.44;;;8.47;36.47
47082;BME280;33066;49.296;14.470;2023-01-25T07:22:06;98447.32;;;8.48;36.63
47082;BME280;33066;49.296;14.470;2023-01-25T07:24:31;98446.89;;;8.48;36.95
47082;BME280;33066;49.296;14.470;2023-01-25T07:26:56;98441.13;;;8.55;36.97
47082;BME280;33066;49.296;14.470;2023-01-25T07:29:22;98439.65;;;8.54;36.71
47082;BME280;33066;49.296;14.470;2023-01-25T07:31:47;98437.19;;;8.49;36.62
47082;BME280;33066;49.296;14.470;2023-01-25T07:34:13;98434.91;;;8.52;36.66
47082;BME280;33066;49.296;14.470;2023-01-25T07:36:39;98430.86;;;8.51;36.41
47082;BME280;33066;49.296;14.470;2023-01-25T07:39:04;98428.89;;;8.41;36.50
47082;BME280;33066;49.296;14.470;2023-01-25T07:41:29;98425.39;;;8.38;36.72
47082;BME280;33066;49.296;14.470;2023-01-25T07:43:55;98429.19;;;8.62;36.72
47082;BME280;33066;49.296;14.470;2023-01-25T07:46:20;98426.31;;;8.33;36.68
47082;BME280;33066;49.296;14.470;2023-01-25T07:48:47;98425.50;;;8.33;36.68
47082;BME280;33066;49.296;14.470;2023-01-25T07:51:13;98425.95;;;8.29;36.74
47082;BME280;33066;49.296;14.470;2023-01-25T07:53:37;98423.99;;;8.37;36.79
47082;BME280;33066;49.296;14.470;2023-01-25T07:56:02;98422.93;;;8.44;36.70
47082;BME280;33066;49.296;14.470;2023-01-25T08:00:53;98427.37;;;8.44;36.64
47082;BME280;33066;49.296;14.470;2023-01-25T08:03:19;98428.75;;;8.21;36.51
47082;BME280;33066;49.296;14.470;2023-01-25T08:05:45;98431.24;;;8.44;36.45
47082;BME280;33066;49.296;14.470;2023-01-25T08:08:10;98432.85;;;8.35;36.50
47082;BME280;33066;49.296;14.470;2023-01-25T08:10:37;98428.72;;;8.31;36.62
47082;BME280;33066;49.296;14.470;2023-01-25T08:13:01;98428.91;;;8.35;36.60
47082;BME280;33066;49.296;14.470;2023-01-25T08:15:27;98428.94;;;8.40;36.53
47082;BME280;33066;49.296;14.470;2023-01-25T08:17:53;98428.97;;;8.40;36.62
47082;BME280;33066;49.296;14.470;2023-01-25T08:20:18;98428.48;;;8.42;36.56
47082;BME280;33066;49.296;14.470;2023-01-25T08:22:43;98429.32;;;8.50;36.36
47082;BME280;33066;49.296;14.470;2023-01-25T08:25:09;98430.03;;;8.50;36.30
47082;BME280;33066;49.296;14.470;2023-01-25T08:27:34;98431.13;;;8.47;36.41
47082;BME280;33066;49.296;14.470;2023-01-25T08:29:59;98430.97;;;8.49;36.47
47082;BME280;33066;49.296;14.470;2023-01-25T08:32:26;98430.69;;;8.52;36.53
47082;BME280;33066;49.296;14.470;2023-01-25T08:34:51;98432.11;;;8.61;36.60
47082;BME280;33066;49.296;14.470;2023-01-25T08:37:16;98427.15;;;8.34;36.69
47082;BME280;33066;49.296;14.470;2023-01-25T08:39:42;98427.06;;;8.59;36.42
47082;BME280;33066;49.296;14.470;2023-01-25T08:42:07;98425.20;;;8.58;36.48
47082;BME280;33066;49.296;14.470;2023-01-25T08:44:33;98423.83;;;8.64;36.52
47082;BME280;33066;49.296;14.470;2023-01-25T08:46:59;98421.38;;;8.65;36.71
47082;BME280;33066;49.296;14.470;2023-01-25T08:49:23;98417.76;;;8.70;36.34
47082;BME280;33066;49.296;14.470;2023-01-25T08:51:49;98414.07;;;8.75;36.38
47082;BME280;33066;49.296;14.470;2023-01-25T08:54:15;98412.95;;;8.67;36.42
47082;BME280;33066;49.296;14.470;2023-01-25T08:56:41;98411.43;;;8.69;36.47
47082;BME280;33066;49.296;14.470;2023-01-25T08:59:07;98410.53;;;8.45;36.39
47082;BME280;33066;49.296;14.470;2023-01-25T09:01:31;98411.31;;;8.68;36.45
47082;BME280;33066;49.296;14.470;2023-01-25T09:03:57;98408.56;;;8.70;36.56
47082;BME280;33066;49.296;14.470;2023-01-25T09:06:22;98406.19;;;8.45;36.57
47082;BME280;33066;49.296;14.470;2023-01-25T09:08:47;98405.76;;;8.39;36.45
47082;BME280;33066;49.296;14.470;2023-01-25T09:11:15;98404.78;;;8.60;36.38
47082;BME280;33066;49.296;14.470;2023-01-25T09:13:39;98399.12;;;8.63;36.44
47082;BME280;33066;49.296;14.470;2023-01-25T09:16:06;98398.14;;;8.59;36.52
47082;BME280;33066;49.296;14.470;2023-01-25T09:18:31;98393.92;;;8.32;36.62
47082;BME280;33066;49.296;14.470;2023-01-25T09:20:56;98391.92;;;8.79;36.72
47082;BME280;33066;49.296;14.470;2023-01-25T09:23:21;98389.24;;;8.92;36.35
47082;BME280;33066;49.296;14.470;2023-01-25T09:25:46;98388.36;;;8.46;36.31
47082;BME280;33066;49.296;14.470;2023-01-25T09:28:12;98383.62;;;8.44;36.37
47082;BME280;33066;49.296;14.470;2023-01-25T09:30:38;98381.85;;;8.41;36.40
47082;BME280;33066;49.296;14.470;2023-01-25T09:33:02;98380.19;;;8.40;36.58
47082;BME280;33066;49.296;14.470;2023-01-25T09:35:28;98382.55;;;8.41;36.57
47082;BME280;33066;49.296;14.470;2023-01-25T09:37:53;98377.48;;;8.46;36.50
47082;BME280;33066;49.296;14.470;2023-01-25T09:40:20;98374.27;;;8.52;36.52
47082;BME280;33066;49.296;14.470;2023-01-25T09:42:54;98373.48;;;8.32;36.73
47082;BME280;33066;49.296;14.470;2023-01-25T09:45:16;98375.63;;;8.39;36.43
47082;BME280;33066;49.296;14.470;2023-01-25T09:47:41;98374.60;;;8.61;36.55
47082;BME280;33066;49.296;14.470;2023-01-25T09:50:15;98372.37;;;8.61;36.52
47082;BME280;33066;49.296;14.470;2023-01-25T09:54:50;98362.33;;;8.73;35.99
47082;BME280;33066;49.296;14.470;2023-01-25T09:57:20;98355.44;;;8.55;36.17
47082;BME280;33066;49.296;14.470;2023-01-25T09:59:43;98353.81;;;9.00;36.20
47082;BME280;33066;49.296;14.470;2023-01-25T10:02:17;98352.06;;;8.49;36.43
47082;BME280;33066;49.296;14.470;2023-01-25T10:04:36;98347.65;;;8.52;36.56
47082;BME280;33066;49.296;14.470;2023-01-25T10:07:03;98343.83;;;8.52;36.78
47082;BME280;33066;49.296;14.470;2023-01-25T10:09:33;98341.81;;;8.55;36.95
47082;BME280;33066;49.296;14.470;2023-01-25T10:11:49;98340.39;;;8.62;36.74
47082;BME280;33066;49.296;14.470;2023-01-25T10:14:17;98339.18;;;8.73;37.02
47082;BME280;33066;49.296;14.470;2023-01-25T10:16:50;98338.24;;;8.81;37.23
47082;BME280;33066;49.296;14.470;2023-01-25T10:19:13;98332.83;;;8.76;36.56
47082;BME280;33066;49.296;14.470;2023-01-25T10:21:36;98334.58;;;8.76;37.44
47082;BME280;33066;49.296;14.470;2023-01-25T10:24:11;98331.10;;;8.65;37.02
47082;BME280;33066;49.296;14.470;2023-01-25T10:26:25;98327.55;;;8.70;37.17
47082;BME280;33066;49.296;14.470;2023-01-25T10:28:52;98320.11;;;8.65;36.91
47082;BME280;33066;49.296;14.470;2023-01-25T10:31:17;98317.36;;;8.78;37.08
47082;BME280;33066;49.296;14.470;2023-01-25T10:33:42;98313.06;;;8.73;37.21
47082;BME280;33066;49.296;14.470;2023-01-25T10:36:05;98308.60;;;8.64;36.99
47082;BME280;33066;49.296;14.470;2023-01-25T10:38:33;98305.87;;;9.00;36.95
47082;BME280;33066;49.296;14.470;2023-01-25T10:40:59;98302.89;;;9.02;36.47
47082;BME280;33066;49.296;14.470;2023-01-25T10:43:21;98297.49;;;9.00;36.53
47082;BME280;33066;49.296;14.470;2023-01-25T10:45:47;98293.77;;;9.06;36.40
47082;BME280;33066;49.296;14.470;2023-01-25T10:48:16;98290.13;;;9.02;36.00
47082;BME280;33066;49.296;14.470;2023-01-25T10:50:45;98284.36;;;9.00;36.54
47082;BME280;33066;49.296;14.470;2023-01-25T10:53:02;98281.48;;;8.80;36.18
47082;BME280;33066;49.296;14.470;2023-01-25T10:55:28;98278.97;;;8.98;36.38
47082;BME280;33066;49.296;14.470;2023-01-25T10:57:55;98274.46;;;8.68;36.37
47082;BME280;33066;49.296;14.470;2023-01-25T11:00:23;98273.19;;;8.66;36.42
47082;BME280;33066;49.296;14.470;2023-01-25T11:02:45;98270.84;;;8.64;36.24
47082;BME280;33066;49.296;14.470;2023-01-25T11:05:24;98270.59;;;8.90;35.92
47082;BME280;33066;49.296;14.470;2023-01-25T11:07:35;98268.22;;;8.93;35.72
47082;BME280;33066;49.296;14.470;2023-01-25T11:10:01;98267.83;;;8.69;35.55
47082;BME280;33066;49.296;14.470;2023-01-25T11:12:27;98265.19;;;8.94;35.37
47082;BME280;33066;49.296;14.470;2023-01-25T11:14:52;98260.66;;;9.06;35.37
47082;BME280;33066;49.296;14.470;2023-01-25T11:17:25;98257.82;;;8.89;35.54
47082;BME280;33066;49.296;14.470;2023-01-25T11:19:43;98255.99;;;8.80;35.60
47082;BME280;33066;49.296;14.470;2023-01-25T11:22:19;98251.44;;;8.71;35.65
47082;BME280;33066;49.296;14.470;2023-01-25T11:24:36;98245.15;;;8.88;35.79
47082;BME280;33066;49.296;14.470;2023-01-25T11:27:11;98242.39;;;8.83;35.85
47082;BME280;33066;49.296;14.470;2023-01-25T11:29:25;98240.35;;;8.86;35.63
47082;BME280;33066;49.296;14.470;2023-01-25T11:31:53;98236.26;;;8.92;35.37
47082;BME280;33066;49.296;14.470;2023-01-25T11:34:19;98233.83;;;9.06;35.24
47082;BME280;33066;49.296;14.470;2023-01-25T11:36:52;98232.74;;;9.09;35.38
47082;BME280;33066;49.296;14.470;2023-01-25T11:39:19;98232.15;;;9.00;35.62
47082;BME280;33066;49.296;14.470;2023-01-25T11:41:41;98227.20;;;8.98;35.78
47082;BME280;33066;49.296;14.470;2023-01-25T11:44:10;98223.68;;;8.98;35.72
47082;BME280;33066;49.296;14.470;2023-01-25T11:46:35;98218.15;;;9.01;35.60
47082;BME280;33066;49.296;14.470;2023-01-25T11:49:00;98212.80;;;8.98;35.51
47082;BME280;33066;49.296;14.470;2023-01-25T11:51:21;98209.11;;;9.03;35.44
47082;BME280;33066;49.296;14.470;2023-01-25T11:53:51;98209.97;;;8.82;35.31
47082;BME280;33066;49.296;14.470;2023-01-25T11:56:14;98210.06;;;9.01;35.44
47082;BME280;33066;49.296;14.470;2023-01-25T11:58:44;98208.11;;;9.02;35.49
47082;BME280;33066;49.296;14.470;2023-01-25T12:01:06;98207.16;;;8.90;35.49
47082;BME280;33066;49.296;14.470;2023-01-25T12:03:41;98204.45;;;8.95;35.77
47082;BME280;33066;49.296;14.470;2023-01-25T12:05:54;98198.52;;;8.90;35.50
47082;BME280;33066;49.296;14.470;2023-01-25T12:08:28;98191.53;;;9.13;36.30
47082;BME280;33066;49.296;14.470;2023-01-25T12:10:45;98186.15;;;9.00;36.36
47082;BME280;33066;49.296;14.470;2023-01-25T12:13:11;98184.32;;;8.87;35.95
47082;BME280;33066;49.296;14.470;2023-01-25T12:15:43;98176.62;;;8.89;36.00
47082;BME280;33066;49.296;14.470;2023-01-25T12:18:12;98168.38;;;8.95;36.39
47082;BME280;33066;49.296;14.470;2023-01-25T12:20:34;98161.00;;;9.11;35.98
47082;BME280;33066;49.296;14.470;2023-01-25T12:23:00;98159.12;;;8.89;36.45
47082;BME280;33066;49.296;14.470;2023-01-25T12:25:20;98157.48;;;8.90;35.88
47082;BME280;33066;49.296;14.470;2023-01-25T12:27:47;98152.65;;;9.11;36.35
47082;BME280;33066;49.296;14.470;2023-01-25T12:30:11;98144.87;;;8.81;36.77
47082;BME280;33066;49.296;14.470;2023-01-25T12:32:34;98137.88;;;8.94;36.61
47082;BME280;33066;49.296;14.470;2023-01-25T12:35:03;98135.63;;;9.22;36.22
47082;BME280;33066;49.296;14.470;2023-01-25T12:37:22;98133.19;;;9.21;36.10
47082;BME280;33066;49.296;14.470;2023-01-25T12:39:49;98132.35;;;9.24;36.04
47082;BME280;33066;49.296;14.470;2023-01-25T12:42:16;98130.47;;;9.24;36.35
47082;BME280;33066;49.296;14.470;2023-01-25T12:44:39;98131.20;;;9.34;36.13
47082;BME280;33066;49.296;14.470;2023-01-25T12:47:06;98130.25;;;9.16;35.62
47082;BME280;33066;49.296;14.470;2023-01-25T12:49:32;98124.43;;;9.07;35.46
47082;BME280;33066;49.296;14.470;2023-01-25T12:51:53;98116.25;;;8.96;36.19
47082;BME280;33066;49.296;14.470;2023-01-25T12:54:22;98108.44;;;9.08;36.69
47082;BME280;33066;49.296;14.470;2023-01-25T12:56:49;98103.36;;;8.91;36.88
47082;BME280;33066;49.296;14.470;2023-01-25T12:59:14;98098.82;;;8.97;36.19